createdAt,value
2023-05-12T00:01:53.203Z,101591.13
2023-05-12T00:04:40.273Z,101601.50
2023-05-12T00:07:25.509Z,101611.81
2023-05-12T00:10:11.143Z,101612.44
2023-05-12T00:12:56.194Z,101610.59
2023-05-12T00:15:41.431Z,101607.28
2023-05-12T00:18:28.513Z,101611.13
2023-05-12T00:21:13.737Z,101613.66
2023-05-12T00:23:58.698Z,101612.59
2023-05-12T00:26:43.925Z,101613.44
2023-05-12T00:29:29.092Z,101619.66
2023-05-12T00:32:14.401Z,101621.63
2023-05-12T00:34:59.860Z,101597.78
2023-05-12T00:37:45.143Z,101606.25
2023-05-12T00:40:30.145Z,101605.63
2023-05-12T00:43:14.880Z,101615.88
2023-05-12T00:46:02.305Z,101609.09
2023-05-12T00:48:48.181Z,101609.16
2023-05-12T00:51:33.171Z,101612.91
2023-05-12T00:54:18.495Z,101595.25
2023-05-12T00:57:03.959Z,101610.09
2023-05-12T00:59:49.291Z,101600.13
2023-05-12T01:02:35.086Z,101606.00
2023-05-12T01:05:20.694Z,101605.41
2023-05-12T01:08:06.313Z,101618.84
2023-05-12T01:10:52.560Z,101628.25
2023-05-12T01:13:39.520Z,101626.31
2023-05-12T01:16:32.654Z,101623.19
2023-05-12T01:19:49.293Z,101622.34
2023-05-12T01:22:35.883Z,101625.78
2023-05-12T01:25:23.614Z,101619.88
2023-05-12T01:28:09.473Z,101625.66
2023-05-12T01:30:54.770Z,101628.41
2023-05-12T01:33:40.040Z,101610.34
2023-05-12T01:36:25.198Z,101618.38
2023-05-12T01:39:10.501Z,101621.63
2023-05-12T01:41:56.239Z,101612.47
2023-05-12T01:44:41.389Z,101624.44
2023-05-12T01:47:26.686Z,101627.91
2023-05-12T01:50:11.916Z,101634.94
2023-05-12T01:52:57.134Z,101628.88
2023-05-12T01:55:42.339Z,101650.22
2023-05-12T01:58:27.554Z,101652.03
2023-05-12T02:01:12.495Z,101642.13
2023-05-12T02:03:58.243Z,101650.69
2023-05-12T02:06:43.319Z,101651.19
2023-05-12T02:09:28.147Z,101640.47
2023-05-12T02:12:13.469Z,101661.81
2023-05-12T02:14:58.389Z,101659.03
2023-05-12T02:17:43.158Z,101649.88
2023-05-12T02:20:29.644Z,101645.94
2023-05-12T02:23:14.496Z,101644.47
2023-05-12T02:25:59.919Z,101654.16
2023-05-12T02:28:44.811Z,101656.44
2023-05-12T02:31:29.787Z,101657.03
2023-05-12T02:34:15.029Z,101664.66
2023-05-12T02:37:00.689Z,101659.97
2023-05-12T02:39:45.573Z,101642.72
2023-05-12T02:42:35.341Z,101655.09
2023-05-12T02:45:20.306Z,101667.97
2023-05-12T02:48:05.876Z,101667.78
2023-05-12T02:50:50.941Z,101664.16
2023-05-12T02:53:36.383Z,101652.06
2023-05-12T02:56:22.436Z,101632.53
2023-05-12T02:59:07.503Z,101652.66
2023-05-12T03:01:52.590Z,101667.03
2023-05-12T03:04:38.122Z,101668.66
2023-05-12T03:07:23.158Z,101669.50
2023-05-12T03:10:09.775Z,101664.00
2023-05-12T03:12:54.939Z,101670.03
2023-05-12T03:15:40.005Z,101664.94
2023-05-12T03:18:24.883Z,101678.47
2023-05-12T03:21:09.894Z,101679.50
2023-05-12T03:23:55.049Z,101676.03
2023-05-12T03:26:41.027Z,101673.56
2023-05-12T03:29:26.602Z,101683.91
2023-05-12T03:32:11.775Z,101682.97
2023-05-12T03:34:56.750Z,101682.13
2023-05-12T03:37:41.557Z,101686.66
2023-05-12T03:40:26.752Z,101687.59
2023-05-12T03:43:11.795Z,101697.91
2023-05-12T03:45:57.220Z,101686.59
2023-05-12T03:48:42.269Z,101700.38
2023-05-12T03:51:28.130Z,101700.31
2023-05-12T03:54:13.209Z,101696.31
2023-05-12T03:56:58.379Z,101698.09
2023-05-12T03:59:43.446Z,101713.56
2023-05-12T04:02:28.393Z,101719.22
2023-05-12T04:05:13.737Z,101724.09
2023-05-12T04:07:58.669Z,101712.28
2023-05-12T04:10:43.634Z,101728.59
2023-05-12T04:13:31.653Z,101700.41
2023-05-12T04:16:16.555Z,101728.66
2023-05-12T04:19:03.223Z,101729.28
2023-05-12T04:21:48.402Z,101715.28
2023-05-12T04:24:33.364Z,101724.44
2023-05-12T04:27:18.711Z,101724.03
2023-05-12T04:30:03.858Z,101724.94
2023-05-12T04:32:49.116Z,101721.59
2023-05-12T04:35:35.149Z,101732.81
2023-05-12T04:38:20.150Z,101718.25
2023-05-12T04:41:06.344Z,101716.41
2023-05-12T04:46:39.608Z,101743.22
2023-05-12T04:49:25.052Z,101745.50
2023-05-12T04:52:09.862Z,101738.75
2023-05-12T04:54:54.791Z,101746.63
2023-05-12T04:57:41.390Z,101743.63
2023-05-12T05:00:26.554Z,101733.84
2023-05-12T05:03:12.027Z,101762.84
2023-05-12T05:05:57.595Z,101763.78
2023-05-12T05:08:42.950Z,101771.66
2023-05-12T05:11:27.722Z,101753.78
2023-05-12T05:14:13.273Z,101778.91
2023-05-12T05:16:59.898Z,101774.34
2023-05-12T05:19:54.721Z,101777.66
2023-05-12T05:22:43.781Z,101778.06
2023-05-12T05:25:29.194Z,101771.44
2023-05-12T05:28:14.630Z,101780.75
2023-05-12T05:30:59.603Z,101781.69
2023-05-12T05:33:44.687Z,101765.59
2023-05-12T05:36:31.542Z,101792.78
2023-05-12T05:39:17.121Z,101794.63
2023-05-12T05:42:02.341Z,101791.41
2023-05-12T05:44:47.149Z,101778.34
2023-05-12T05:47:32.404Z,101802.22
2023-05-12T05:50:17.589Z,101810.09
2023-05-12T05:53:02.530Z,101806.63
2023-05-12T05:55:48.736Z,101808.06
2023-05-12T05:58:34.013Z,101813.31
2023-05-12T06:01:19.078Z,101801.38
2023-05-12T06:04:04.158Z,101816.69
2023-05-12T06:06:49.623Z,101815.38
2023-05-12T06:09:34.626Z,101813.66
2023-05-12T06:12:19.748Z,101822.91
2023-05-12T06:15:05.720Z,101821.38
2023-05-12T06:17:50.670Z,101827.16
2023-05-12T06:20:35.907Z,101821.22
2023-05-12T06:23:21.004Z,101809.28
2023-05-12T06:26:07.764Z,101829.53
2023-05-12T06:28:53.068Z,101823.19
2023-05-12T06:31:38.396Z,101823.63
2023-05-12T06:34:23.360Z,101827.81
2023-05-12T06:37:08.572Z,101811.38
2023-05-12T06:39:53.545Z,101825.44
2023-05-12T06:42:38.456Z,101814.72
2023-05-12T06:45:23.757Z,101822.50
2023-05-12T06:48:09.593Z,101824.97
2023-05-12T06:50:54.727Z,101818.78
2023-05-12T06:53:42.695Z,101821.91
2023-05-12T06:56:29.297Z,101822.28
2023-05-12T06:59:14.386Z,101825.91
2023-05-12T07:01:59.765Z,101818.09
2023-05-12T07:04:45.079Z,101822.25
2023-05-12T07:07:30.197Z,101819.63
2023-05-12T07:10:15.293Z,101816.66
2023-05-12T07:13:00.783Z,101817.06
2023-05-12T07:15:45.719Z,101819.38
2023-05-12T07:18:32.075Z,101801.56
2023-05-12T07:21:17.370Z,101810.63
2023-05-12T07:24:02.460Z,101813.53
2023-05-12T07:26:48.105Z,101817.13
2023-05-12T07:29:33.156Z,101817.69
2023-05-12T07:32:18.150Z,101819.41
2023-05-12T07:35:03.704Z,101816.53
2023-05-12T07:37:48.607Z,101812.69
2023-05-12T07:40:33.723Z,101817.41
2023-05-12T07:43:19.057Z,101817.16
2023-05-12T07:46:04.216Z,101822.13
2023-05-12T07:48:50.634Z,101827.13
2023-05-12T07:51:35.587Z,101814.81
2023-05-12T07:54:20.937Z,101819.88
2023-05-12T07:57:05.944Z,101827.22
2023-05-12T07:59:50.972Z,101824.75
2023-05-12T08:02:37.718Z,101821.00
2023-05-12T08:05:23.140Z,101809.06
2023-05-12T08:08:16.604Z,101821.75
2023-05-12T08:11:02.114Z,101824.97
2023-05-12T08:13:47.374Z,101815.28
2023-05-12T08:16:32.252Z,101806.91
2023-05-12T08:19:17.265Z,101820.31
2023-05-12T08:22:02.823Z,101813.06
2023-05-12T08:24:48.113Z,101814.69
2023-05-12T08:27:33.270Z,101813.16
2023-05-12T08:30:18.523Z,101811.91
2023-05-12T08:33:04.416Z,101816.63
2023-05-12T08:35:49.606Z,101825.06
2023-05-12T08:38:35.003Z,101827.13
2023-05-12T08:41:28.315Z,101816.38
2023-05-12T08:44:15.788Z,101825.72
2023-05-12T08:47:03.850Z,101826.25
2023-05-12T08:50:03.342Z,101819.00
2023-05-12T08:52:49.488Z,101819.00
2023-05-12T08:55:35.152Z,101818.56
2023-05-12T08:58:30.500Z,101818.38
2023-05-12T09:01:23.220Z,101809.09
2023-05-12T09:04:08.550Z,101814.06
2023-05-12T09:06:55.608Z,101819.03
2023-05-12T09:09:44.194Z,101815.41
2023-05-12T09:12:34.011Z,101825.13
2023-05-12T09:15:25.993Z,101827.22
2023-05-12T09:18:11.263Z,101823.75
2023-05-12T09:20:56.822Z,101838.56
2023-05-12T09:23:55.725Z,101836.06
2023-05-12T09:26:51.229Z,101835.19
2023-05-12T09:29:45.168Z,101831.59
2023-05-12T09:32:36.923Z,101825.84
2023-05-12T09:35:22.335Z,101840.16
2023-05-12T09:38:09.182Z,101839.50
2023-05-12T09:40:54.728Z,101832.75
2023-05-12T09:43:46.466Z,101837.63
2023-05-12T09:46:31.800Z,101827.09
2023-05-12T09:49:26.755Z,101829.47
2023-05-12T09:52:12.027Z,101810.81
2023-05-12T09:54:57.058Z,101838.44
2023-05-12T09:57:43.992Z,101849.94
2023-05-12T10:00:43.388Z,101842.72
2023-05-12T10:03:35.478Z,101826.25
2023-05-12T10:06:26.472Z,101832.06
2023-05-12T10:09:19.536Z,101834.50
2023-05-12T10:12:06.228Z,101833.75
2023-05-12T10:14:51.687Z,101842.44
2023-05-12T10:17:37.441Z,101833.78
2023-05-12T10:20:23.227Z,101841.13
2023-05-12T10:23:10.061Z,101821.94
2023-05-12T10:26:01.925Z,101828.69
2023-05-12T10:28:47.694Z,101828.69
2023-05-12T10:31:35.996Z,101820.09
2023-05-12T10:34:21.601Z,101822.88
2023-05-12T10:37:09.973Z,101816.88
2023-05-12T10:39:54.956Z,101824.13
2023-05-12T10:42:42.530Z,101818.56
2023-05-12T10:45:28.178Z,101832.66
2023-05-12T10:48:15.578Z,101825.31
2023-05-12T10:51:08.510Z,101819.50
2023-05-12T10:53:57.341Z,101820.09
2023-05-12T10:56:44.793Z,101819.69
2023-05-12T10:59:30.824Z,101828.50
2023-05-12T11:02:18.465Z,101828.50
2023-05-12T11:05:10.539Z,101826.47
2023-05-12T11:07:56.976Z,101823.16
2023-05-12T11:10:42.749Z,101822.31
2023-05-12T11:13:29.330Z,101816.31
2023-05-12T11:16:14.548Z,101797.44
2023-05-12T11:19:05.814Z,101810.69
2023-05-12T11:21:51.204Z,101815.28
2023-05-12T11:24:37.848Z,101820.44
2023-05-12T11:27:24.069Z,101800.44
2023-05-12T11:30:11.040Z,101812.94
2023-05-12T11:33:03.482Z,101820.31
2023-05-12T11:35:49.609Z,101810.66
2023-05-12T11:38:35.005Z,101819.09
2023-05-12T11:41:24.966Z,101826.22
2023-05-12T11:44:30.574Z,101824.16
2023-05-12T11:47:17.072Z,101814.84
2023-05-12T11:50:03.428Z,101823.94
2023-05-12T11:52:48.849Z,101835.47
2023-05-12T11:55:34.158Z,101832.09
2023-05-12T11:58:30.328Z,101829.19
2023-05-12T12:01:15.768Z,101829.38
2023-05-12T12:04:01.206Z,101839.13
2023-05-12T12:06:46.385Z,101831.69
2023-05-12T12:09:41.798Z,101845.44
2023-05-12T12:12:27.040Z,101813.00
2023-05-12T12:15:13.098Z,101814.19
2023-05-12T12:17:58.270Z,101827.72
2023-05-12T12:20:43.931Z,101810.44
2023-05-12T12:23:33.349Z,101817.47
2023-05-12T12:26:25.924Z,101831.00
2023-05-12T12:29:11.463Z,101830.00
2023-05-12T12:31:56.330Z,101803.56
2023-05-12T12:34:41.417Z,101828.13
2023-05-12T12:37:27.055Z,101826.44
2023-05-12T12:40:13.204Z,101823.72
2023-05-12T12:42:58.455Z,101828.88
2023-05-12T12:45:43.413Z,101829.56
2023-05-12T12:48:28.838Z,101826.72
2023-05-12T12:51:14.308Z,101834.63
2023-05-12T12:53:59.496Z,101828.19
2023-05-12T12:56:44.685Z,101814.78
2023-05-12T12:59:29.832Z,101837.63
2023-05-12T13:02:15.064Z,101835.81
2023-05-12T13:05:05.938Z,101837.53
2023-05-12T13:07:52.216Z,101831.00
2023-05-12T13:10:37.718Z,101838.31
2023-05-12T13:13:24.473Z,101836.19
2023-05-12T13:16:09.524Z,101847.13
2023-05-12T13:18:54.531Z,101839.91
2023-05-12T13:21:39.959Z,101829.19
2023-05-12T13:24:25.316Z,101830.44
2023-05-12T13:27:10.700Z,101834.81
2023-05-12T13:29:55.646Z,101838.00
2023-05-12T13:32:40.677Z,101841.75
2023-05-12T13:35:26.020Z,101826.53
2023-05-12T13:38:11.184Z,101838.84
2023-05-12T13:40:56.379Z,101829.72
2023-05-12T13:43:41.604Z,101834.16
2023-05-12T13:46:26.673Z,101847.09
2023-05-12T13:49:12.729Z,101842.78
2023-05-12T13:51:58.045Z,101842.09
2023-05-12T13:54:43.427Z,101842.94
2023-05-12T13:57:28.727Z,101846.09
2023-05-12T14:00:17.183Z,101837.97
2023-05-12T14:03:02.784Z,101826.66
2023-05-12T14:05:48.012Z,101839.06
2023-05-12T14:08:33.021Z,101841.63
2023-05-12T14:11:18.036Z,101847.34
2023-05-12T14:14:04.252Z,101850.22
2023-05-12T14:16:49.253Z,101846.91
2023-05-12T14:19:35.662Z,101847.19
2023-05-12T14:22:26.426Z,101840.09
2023-05-12T14:25:12.058Z,101843.97
2023-05-12T14:27:57.294Z,101850.00
2023-05-12T14:30:43.387Z,101834.19
2023-05-12T14:33:28.658Z,101850.16
2023-05-12T14:36:13.902Z,101841.44
2023-05-12T14:38:58.954Z,101843.22
2023-05-12T14:41:44.103Z,101852.44
2023-05-12T14:44:29.180Z,101862.94
2023-05-12T14:47:14.381Z,101867.47
2023-05-12T14:49:59.557Z,101864.84
2023-05-12T14:52:44.928Z,101855.50
2023-05-12T14:55:30.145Z,101863.13
2023-05-12T14:58:17.565Z,101857.22
2023-05-12T15:01:03.631Z,101851.59
2023-05-12T15:03:49.617Z,101861.44
2023-05-12T15:06:34.946Z,101867.53
2023-05-12T15:09:20.231Z,101872.13
2023-05-12T15:12:05.542Z,101873.81
2023-05-12T15:14:50.787Z,101849.34
2023-05-12T15:17:35.709Z,101874.16
2023-05-12T15:20:21.000Z,101866.16
2023-05-12T15:23:05.917Z,101877.78
2023-05-12T15:25:51.458Z,101881.44
2023-05-12T15:28:36.567Z,101887.47
2023-05-12T15:31:21.554Z,101895.25
2023-05-12T15:34:07.301Z,101897.88
2023-05-12T15:36:52.509Z,101891.44
2023-05-12T15:39:38.665Z,101900.59
2023-05-12T15:42:30.087Z,101906.78
2023-05-12T15:45:18.024Z,101891.03
2023-05-12T15:48:04.307Z,101897.41
2023-05-12T15:50:49.928Z,101903.50
2023-05-12T15:53:35.454Z,101898.31
2023-05-12T15:56:21.969Z,101913.97
2023-05-12T15:59:07.400Z,101903.53
2023-05-12T16:01:52.335Z,101906.16
2023-05-12T16:04:37.697Z,101892.88
2023-05-12T16:07:22.996Z,101903.25
2023-05-12T16:10:09.504Z,101908.22
2023-05-12T16:12:54.984Z,101910.75
2023-05-12T16:15:40.507Z,101910.66
2023-05-12T16:18:25.813Z,101908.97
2023-05-12T16:21:12.714Z,101913.66
2023-05-12T16:23:57.737Z,101920.03
2023-05-12T16:26:42.715Z,101930.59
2023-05-12T16:29:31.203Z,101916.69
2023-05-12T16:32:17.388Z,101911.88
2023-05-12T16:35:03.721Z,101920.28
2023-05-12T16:37:49.148Z,101922.13
2023-05-12T16:40:34.671Z,101933.31
2023-05-12T16:43:19.813Z,101919.59
2023-05-12T16:46:04.918Z,101915.19
2023-05-12T16:48:50.656Z,101928.06
2023-05-12T16:51:35.844Z,101927.72
2023-05-12T16:54:20.921Z,101934.66
2023-05-12T16:57:06.197Z,101925.84
2023-05-12T16:59:51.982Z,101926.00
2023-05-12T17:02:38.835Z,101932.81
2023-05-12T17:05:24.628Z,101937.28
2023-05-12T17:08:10.050Z,101924.50
2023-05-12T17:10:55.553Z,101930.06
2023-05-12T17:13:40.654Z,101936.19
2023-05-12T17:16:25.815Z,101930.19
2023-05-12T17:19:14.919Z,101919.16
2023-05-12T17:22:01.169Z,101943.31
2023-05-12T17:24:46.950Z,101940.94
2023-05-12T17:27:31.971Z,101948.25
2023-05-12T17:30:18.460Z,101941.38
2023-05-12T17:33:03.548Z,101936.53
2023-05-12T17:36:07.798Z,101946.22
2023-05-12T17:38:54.760Z,101942.66
2023-05-12T17:41:39.941Z,101936.66
2023-05-12T17:44:24.871Z,101951.09
2023-05-12T17:47:14.251Z,101948.84
2023-05-12T17:49:59.439Z,101949.97
2023-05-12T17:52:44.664Z,101948.41
2023-05-12T17:55:29.754Z,101951.03
2023-05-12T17:58:15.095Z,101957.38
2023-05-12T18:01:00.548Z,101955.84
2023-05-12T18:03:45.919Z,101960.91
2023-05-12T18:06:32.552Z,101952.72
2023-05-12T18:09:17.990Z,101959.72
2023-05-12T18:12:03.038Z,101976.84
2023-05-12T18:14:48.288Z,101973.63
2023-05-12T18:17:33.353Z,101964.31
2023-05-12T18:20:19.045Z,101973.81
2023-05-12T18:23:03.992Z,101968.88
2023-05-12T18:25:48.944Z,101968.88
2023-05-12T18:28:33.863Z,101969.63
2023-05-12T18:31:20.030Z,101984.47
2023-05-12T18:34:05.125Z,101988.53
2023-05-12T18:36:50.021Z,102001.00
2023-05-12T18:39:34.878Z,101980.41
2023-05-12T18:42:20.241Z,101992.78
2023-05-12T18:45:05.937Z,102003.47
2023-05-12T18:47:51.735Z,101997.59
2023-05-12T18:50:37.177Z,101988.84
2023-05-12T18:53:23.168Z,102009.69
2023-05-12T18:56:08.295Z,102002.50
2023-05-12T18:58:53.224Z,102014.94
2023-05-12T19:01:38.183Z,102000.38
2023-05-12T19:04:23.486Z,101989.66
2023-05-12T19:07:09.987Z,102011.78
2023-05-12T19:09:55.107Z,102020.59
2023-05-12T19:12:40.187Z,102032.88
2023-05-12T19:15:25.171Z,102033.72
2023-05-12T19:18:10.759Z,102025.41
2023-05-12T19:20:55.846Z,102045.56
2023-05-12T19:23:41.277Z,102044.72
2023-05-12T19:26:26.906Z,102046.78
2023-05-12T19:29:14.096Z,102049.41
2023-05-12T19:31:59.278Z,102037.53
2023-05-12T19:34:44.525Z,102059.41
2023-05-12T19:37:29.857Z,102066.53
2023-05-12T19:40:15.063Z,102073.34
2023-05-12T19:43:00.281Z,102074.25
2023-05-12T19:45:45.808Z,102071.78
2023-05-12T19:48:31.359Z,102078.03
2023-05-12T19:51:16.492Z,102081.06
2023-05-12T19:54:04.736Z,102088.91
2023-05-12T19:56:49.660Z,102101.44
2023-05-12T19:59:34.613Z,102110.16
2023-05-12T20:02:19.548Z,102110.06
2023-05-12T20:05:05.010Z,102110.31
2023-05-12T20:07:50.918Z,102087.25
2023-05-12T20:10:35.855Z,102109.75
2023-05-12T20:13:21.317Z,102092.75
2023-05-12T20:16:06.927Z,102102.81
2023-05-12T20:18:52.194Z,102084.13
2023-05-12T20:21:37.840Z,102126.44
2023-05-12T20:24:23.129Z,102107.13
2023-05-12T20:27:08.584Z,102121.72
2023-05-12T20:29:53.542Z,102120.06
2023-05-12T20:32:38.675Z,102128.22
2023-05-12T20:35:24.095Z,102138.97
2023-05-12T20:38:09.207Z,102123.84
2023-05-12T20:40:54.470Z,102142.69
2023-05-12T20:43:41.315Z,102144.59
2023-05-12T20:46:28.082Z,102149.13
2023-05-12T20:49:13.569Z,102144.81
2023-05-12T20:51:59.046Z,102148.56
2023-05-12T20:54:44.159Z,102140.69
2023-05-12T20:57:29.328Z,102140.84
2023-05-12T21:00:14.730Z,102147.88
2023-05-12T21:03:00.174Z,102149.00
2023-05-12T21:05:48.150Z,102147.97
2023-05-12T21:08:33.452Z,102156.66
2023-05-12T21:11:19.064Z,102152.22
2023-05-12T21:14:04.952Z,102147.59
2023-05-12T21:16:50.339Z,102182.03
2023-05-12T21:19:36.982Z,102171.56
2023-05-12T21:22:21.867Z,102174.38
2023-05-12T21:25:07.390Z,102167.41
2023-05-12T21:27:53.041Z,102159.56
2023-05-12T21:30:38.248Z,102172.59
2023-05-12T21:33:23.106Z,102150.59
2023-05-12T21:36:08.380Z,102186.91
2023-05-12T21:38:53.324Z,102189.25
2023-05-12T21:41:39.196Z,102183.94
2023-05-12T21:44:24.164Z,102204.06
2023-05-12T21:47:09.499Z,102193.78
2023-05-12T21:49:55.174Z,102186.91
2023-05-12T21:52:40.478Z,102195.41
2023-05-12T21:55:26.271Z,102197.28
2023-05-12T21:58:11.583Z,102196.34
2023-05-12T22:00:56.512Z,102206.84
2023-05-12T22:03:41.745Z,102192.44
2023-05-12T22:06:27.058Z,102207.75
2023-05-12T22:09:12.310Z,102184.78
2023-05-12T22:11:57.225Z,102188.97
2023-05-12T22:14:42.835Z,102208.03
2023-05-12T22:17:28.095Z,102216.97
2023-05-12T22:20:13.482Z,102206.38
2023-05-12T22:22:59.305Z,102209.75
2023-05-12T22:25:44.335Z,102190.81
2023-05-12T22:28:29.598Z,102175.66
2023-05-12T22:31:14.676Z,102199.66
2023-05-12T22:33:59.991Z,102186.56
2023-05-12T22:36:45.669Z,102200.59
2023-05-12T22:39:30.613Z,102203.13
2023-05-12T22:42:15.968Z,102194.91
2023-05-12T22:45:04.619Z,102207.38
2023-05-12T22:47:49.614Z,102207.47
2023-05-12T22:50:35.219Z,102197.97
2023-05-12T22:53:20.293Z,102213.34
2023-05-12T22:56:05.802Z,102211.44
2023-05-12T22:58:50.874Z,102214.41
2023-05-12T23:01:36.077Z,102216.81
2023-05-12T23:04:21.148Z,102207.13
2023-05-12T23:07:09.407Z,102204.75
2023-05-12T23:09:54.426Z,102208.16
2023-05-12T23:12:39.647Z,102207.19
2023-05-12T23:15:24.973Z,102206.47
2023-05-12T23:18:10.106Z,102188.13
2023-05-12T23:20:55.226Z,102198.03
2023-05-12T23:23:40.536Z,102198.81
2023-05-12T23:26:25.836Z,102201.50
2023-05-12T23:29:11.181Z,102183.38
2023-05-12T23:31:58.682Z,102194.66
2023-05-12T23:34:44.450Z,102187.53
2023-05-12T23:37:29.590Z,102199.81
2023-05-12T23:40:14.717Z,102190.50
2023-05-12T23:42:59.792Z,102190.50
2023-05-12T23:45:45.556Z,102188.97
2023-05-12T23:48:30.656Z,102185.28
2023-05-12T23:51:16.002Z,102201.09
2023-05-12T23:54:00.981Z,102216.72
2023-05-12T23:56:46.251Z,102209.66
2023-05-12T23:59:31.358Z,102203.63
